Terminal Aerodrome Forecast
Issued by NWS

Home | Current Version | Previous Version | Graphics & Text | Print | Product List | Glossary On
Versions: 1 2 3 4 5 6 7 8 9 10 11 12 13 14 15 16 17 18
000
FTUS43 KABR 231700
TAFMBG
TAF
KMBG 231726Z 2318/2418 33019G25KT P6SM OVC013
      TEMPO 2318/2321 4SM -SN
     FM232100 33014KT P6SM -SN OVC025
     FM240000 34006KT 6SM BR OVC015
     FM241500 18006KT P6SM OVC050=

USA.gov is the U.S. government's official web portal to all federal, state and local government web resources and services.